Star City, AR

4:54 PM CDT on August 23, 2016 (GMT -0500)
Grider | | Change Station

Elev 207 ft 34.17 °N, 91.93 °W | Updated 1 hour ago

Scattered Clouds
Scattered Clouds
90 °F
Feels Like 99 °F
N
9
Wind Variable Wind from SSW

Today
High -- | Low -- °F
--% Chance of Precip.
Yesterday
High -- | Low -- °F
Precip. -- in
Pressure 30.13 in
Visibility 10.0 miles
Clouds Few 3800 ft
Few 4600 ft
Scattered Clouds 6500 ft
Heat Index 99 °F
Dew Point 74 °F
Humidity 59%
Rainfall 0.00 in
Snow Depth Not available.
6:35 AM 7:43 PM
Waning Gibbous, 64% visible
METAR KPBF 232053Z AUTO 21008KT 10SM FEW038 FEW046 SCT065 32/23 A3014 RMK AO2 SLP202 T03220233 58017
Pressure 30.13 in
Visibility 10.0 miles
Clouds Few 3800 ft
Few 4600 ft
Scattered Clouds 6500 ft
Heat Index 99 °F
Dew Point 74 °F
Humidity 59%
Rainfall 0.00 in
Snow Depth Not available.
6:35 AM 7:43 PM
Waning Gibbous, 64% visible
METAR KPBF 232053Z AUTO 21008KT 10SM FEW038 FEW046 SCT065 32/23 A3014 RMK AO2 SLP202 T03220233 58017

10-Day Weather Forecast

Almanac

Astronomy

Aug. 23, 2016 Rise Set
Actual Time
Civil Twilight
Nautical Twilight
Astronomical Twilight
Moon
Length of Visible Light
Length of Day
Tomorrow will be .
, % of the Moon is Illuminated

Today's Extremes

State Highs State Lows

Community

WunderPhotos

Upload Photos

1,934,470 photos uploaded!

WunderBlog® & News

Nearby

Air Quality

  Air Quality AQ Index Pollutant
Not available.

Snow Depth

Station Depth Elevation

Earthquake Activity

City Distance Mag. Time & Date
Minimum magnitude displayed is 2.5.

Coastal Water Temperatures

Place Temperature

Stations

Nearby Weather Stations

Station Location Temp. Windchill Dew Point Humidity Wind Precip. Elev Updated Type
                   

Watches & Warnings

There are currently no watches in effect.